createdAt,value
2022-10-01T00:02:13.899Z,7.57
2022-10-01T00:04:43.670Z,7.54
2022-10-01T00:07:15.279Z,7.53
2022-10-01T00:09:43.913Z,7.55
2022-10-01T00:12:15.884Z,7.54
2022-10-01T00:14:46.347Z,7.56
2022-10-01T00:17:15.304Z,7.53
2022-10-01T00:19:44.379Z,7.51
2022-10-01T00:22:13.886Z,7.53
2022-10-01T00:24:42.919Z,7.55
2022-10-01T00:27:12.568Z,7.52
2022-10-01T00:29:44.870Z,7.54
2022-10-01T00:32:15.510Z,7.56
2022-10-01T00:34:43.974Z,7.53
2022-10-01T00:37:12.477Z,7.56
2022-10-01T00:39:41.568Z,7.59
2022-10-01T00:42:20.214Z,7.62
2022-10-01T00:44:49.595Z,7.63
2022-10-01T00:47:33.562Z,7.66
2022-10-01T00:50:09.949Z,7.67
2022-10-01T00:52:43.453Z,7.66
2022-10-01T00:55:18.858Z,7.65
2022-10-01T00:57:48.817Z,7.62
2022-10-01T01:00:18.540Z,7.61
2022-10-01T01:02:48.426Z,7.59
2022-10-01T01:05:16.947Z,7.57
2022-10-01T01:07:49.600Z,7.62
2022-10-01T01:10:29.899Z,7.63
2022-10-01T01:13:14.513Z,7.67
2022-10-01T01:15:55.439Z,7.70
2022-10-01T01:18:35.400Z,7.73
2022-10-01T01:21:26.227Z,7.77
2022-10-01T01:24:35.919Z,7.79
2022-10-01T01:27:25.560Z,7.82
2022-10-01T01:30:03.785Z,7.84
2022-10-01T01:32:46.944Z,7.85
2022-10-01T01:35:25.988Z,7.85
2022-10-01T01:38:02.052Z,7.89
2022-10-01T01:40:36.826Z,7.88
2022-10-01T01:43:11.769Z,7.90
2022-10-01T01:45:44.796Z,7.91
2022-10-01T01:48:15.093Z,7.93
2022-10-01T01:50:52.173Z,7.96
2022-10-01T01:53:22.010Z,7.96
2022-10-01T01:55:51.604Z,7.98
2022-10-01T01:58:22.878Z,7.99
2022-10-01T02:00:54.285Z,8.03
2022-10-01T02:03:27.081Z,8.04
2022-10-01T02:06:13.419Z,8.01
2022-10-01T02:08:50.873Z,8.05
2022-10-01T02:11:34.860Z,8.09
2022-10-01T02:14:22.351Z,8.11
2022-10-01T02:17:03.734Z,8.12
2022-10-01T02:19:40.321Z,8.16
2022-10-01T02:22:17.795Z,8.21
2022-10-01T02:24:52.114Z,8.26
2022-10-01T02:27:27.931Z,8.27
2022-10-01T02:30:00.584Z,8.29
2022-10-01T02:32:33.527Z,8.32
2022-10-01T02:35:04.589Z,8.33
2022-10-01T02:37:36.818Z,8.37
2022-10-01T02:40:13.430Z,8.40
2022-10-01T02:42:48.041Z,8.40
2022-10-01T02:45:22.945Z,8.44
2022-10-01T02:48:00.373Z,8.48
2022-10-01T02:50:36.801Z,8.53
2022-10-01T02:53:12.087Z,8.57
2022-10-01T02:55:43.656Z,8.63
2022-10-01T02:58:12.918Z,8.68
2022-10-01T03:00:42.925Z,8.73
2022-10-01T03:03:13.435Z,8.75
2022-10-01T03:05:42.291Z,8.79
2022-10-01T03:08:11.827Z,8.81
2022-10-01T03:10:46.036Z,8.85
2022-10-01T03:13:17.174Z,8.87
2022-10-01T03:15:48.380Z,8.90
2022-10-01T03:18:19.024Z,8.94
2022-10-01T03:20:50.079Z,8.94
2022-10-01T03:23:19.199Z,8.97
2022-10-01T03:25:48.226Z,8.99
2022-10-01T03:28:18.442Z,9.00
2022-10-01T03:30:48.589Z,9.03
2022-10-01T03:33:18.988Z,9.05
2022-10-01T03:35:47.713Z,9.06
2022-10-01T03:38:17.086Z,9.10
2022-10-01T03:40:46.369Z,9.11
2022-10-01T03:43:15.366Z,9.13
2022-10-01T03:45:44.231Z,9.14
2022-10-01T03:48:12.747Z,9.16
2022-10-01T03:50:42.731Z,9.19
2022-10-01T03:53:11.488Z,9.23
2022-10-01T03:55:40.350Z,9.21
2022-10-01T03:58:09.661Z,9.23
2022-10-01T04:00:38.706Z,9.26
2022-10-01T04:03:07.916Z,9.30
2022-10-01T04:05:36.418Z,9.29
2022-10-01T04:08:08.845Z,9.31
2022-10-01T04:10:37.326Z,9.33
2022-10-01T04:13:06.762Z,9.34
2022-10-01T04:15:35.639Z,9.33
2022-10-01T04:18:05.539Z,9.38
2022-10-01T04:20:35.444Z,9.40
2022-10-01T04:23:05.814Z,9.43
2022-10-01T04:25:35.501Z,9.45
2022-10-01T04:28:06.522Z,9.47
2022-10-01T04:30:41.153Z,9.50
2022-10-01T04:33:13.931Z,9.52
2022-10-01T04:35:43.539Z,9.53
2022-10-01T04:38:18.036Z,9.54
2022-10-01T04:40:47.148Z,9.58
2022-10-01T04:43:16.058Z,9.61
2022-10-01T04:45:44.566Z,9.58
2022-10-01T04:48:13.062Z,9.59
2022-10-01T04:50:41.678Z,9.59
2022-10-01T04:53:10.748Z,9.61
2022-10-01T04:55:43.056Z,9.58
2022-10-01T04:58:11.888Z,9.60
2022-10-01T05:00:41.189Z,9.61
2022-10-01T05:03:10.461Z,9.66
2022-10-01T05:05:40.311Z,9.67
2022-10-01T05:08:09.210Z,9.69
2022-10-01T05:10:37.832Z,9.67
2022-10-01T05:13:08.476Z,9.71
2022-10-01T05:15:36.930Z,9.71
2022-10-01T05:18:05.592Z,9.72
2022-10-01T05:20:35.891Z,9.74
2022-10-01T05:23:04.428Z,9.77
2022-10-01T05:25:33.383Z,9.76
2022-10-01T05:28:07.373Z,9.77
2022-10-01T05:30:37.518Z,9.80
2022-10-01T05:33:07.406Z,9.75
2022-10-01T05:35:36.579Z,9.77
2022-10-01T05:38:05.622Z,9.79
2022-10-01T05:40:34.455Z,9.81
2022-10-01T05:43:05.148Z,9.80
2022-10-01T05:45:36.491Z,9.83
2022-10-01T05:48:08.089Z,9.84
2022-10-01T05:50:40.505Z,9.85
2022-10-01T05:53:09.652Z,9.87
2022-10-01T05:55:38.757Z,9.87
2022-10-01T05:58:10.579Z,9.87
2022-10-01T06:00:43.142Z,9.92
2022-10-01T06:03:13.731Z,9.91
2022-10-01T06:05:46.406Z,9.94
2022-10-01T06:08:15.231Z,9.94
2022-10-01T06:10:44.910Z,9.95
2022-10-01T06:13:17.891Z,9.94
2022-10-01T06:15:48.887Z,9.93
2022-10-01T06:18:17.347Z,9.94
2022-10-01T06:20:45.839Z,9.97
2022-10-01T06:23:15.307Z,9.95
2022-10-01T06:25:45.454Z,9.96
2022-10-01T06:28:16.309Z,9.94
2022-10-01T06:30:50.083Z,9.99
2022-10-01T06:33:19.236Z,10.02
2022-10-01T06:35:52.295Z,10.03
2022-10-01T06:38:23.539Z,10.03
2022-10-01T06:40:59.189Z,10.05
2022-10-01T06:43:31.105Z,10.07
2022-10-01T06:46:06.915Z,10.08
2022-10-01T06:48:37.157Z,10.09
2022-10-01T06:51:06.134Z,10.11
2022-10-01T06:53:33.692Z,10.11
2022-10-01T06:56:07.604Z,10.12
2022-10-01T06:58:37.438Z,10.11
2022-10-01T07:01:08.347Z,10.12
2022-10-01T07:03:36.977Z,10.14
2022-10-01T07:06:08.683Z,10.17
2022-10-01T07:08:38.654Z,10.16
2022-10-01T07:11:07.259Z,10.18
2022-10-01T07:13:35.708Z,10.20
2022-10-01T07:16:05.149Z,10.20
2022-10-01T07:18:35.992Z,10.20
2022-10-01T07:21:04.491Z,10.21
2022-10-01T07:23:32.979Z,10.22
2022-10-01T07:26:02.499Z,10.25
2022-10-01T07:28:31.235Z,10.28
2022-10-01T07:31:03.650Z,10.30
2022-10-01T07:33:32.234Z,10.30
2022-10-01T07:36:05.550Z,10.30
2022-10-01T07:38:35.534Z,10.29
2022-10-01T07:41:05.477Z,10.31
2022-10-01T07:43:36.676Z,10.32
2022-10-01T07:46:07.290Z,10.34
2022-10-01T07:48:36.682Z,10.36
2022-10-01T07:51:06.949Z,10.36
2022-10-01T07:53:35.424Z,10.38
2022-10-01T07:56:05.020Z,10.39
2022-10-01T07:58:34.369Z,10.41
2022-10-01T08:01:06.555Z,10.43
2022-10-01T08:03:36.149Z,10.45
2022-10-01T08:06:07.766Z,10.47
2022-10-01T08:08:36.442Z,10.47
2022-10-01T08:11:05.516Z,10.49
2022-10-01T08:13:35.089Z,10.52
2022-10-01T08:16:06.398Z,10.55
2022-10-01T08:18:35.002Z,10.54
2022-10-01T08:21:06.110Z,10.56
2022-10-01T08:23:35.174Z,10.58
2022-10-01T08:26:07.498Z,10.63
2022-10-01T08:28:36.901Z,10.62
2022-10-01T08:31:09.486Z,10.65
2022-10-01T08:33:39.037Z,10.65
2022-10-01T08:36:09.593Z,10.65
2022-10-01T08:38:40.229Z,10.67
2022-10-01T08:41:29.096Z,10.68
2022-10-01T08:43:59.004Z,10.72
2022-10-01T08:46:32.828Z,10.71
2022-10-01T08:49:16.687Z,10.73
2022-10-01T08:54:05.648Z,10.75
2022-10-01T08:56:40.525Z,10.78
2022-10-01T08:59:29.422Z,10.81
2022-10-01T09:01:59.231Z,10.80
2022-10-01T09:04:28.411Z,10.84
2022-10-01T09:07:14.042Z,10.87
2022-10-01T09:09:57.629Z,10.92
2022-10-01T09:12:47.197Z,10.97
2022-10-01T09:15:33.644Z,11.01
2022-10-01T09:18:20.978Z,11.04
2022-10-01T09:20:58.545Z,11.09
2022-10-01T09:23:30.675Z,11.12
2022-10-01T09:26:01.424Z,11.14
2022-10-01T09:28:33.383Z,11.20
2022-10-01T09:31:15.859Z,11.22
2022-10-01T09:33:52.423Z,11.26
2022-10-01T09:36:33.773Z,11.30
2022-10-01T09:39:18.478Z,11.35
2022-10-01T09:41:48.526Z,11.37
2022-10-01T09:44:24.035Z,11.41
2022-10-01T09:46:52.543Z,11.43
2022-10-01T09:49:33.989Z,11.40
2022-10-01T09:52:19.291Z,11.44
2022-10-01T09:54:58.785Z,11.50
2022-10-01T09:57:36.267Z,11.54
2022-10-01T10:00:11.988Z,11.57
2022-10-01T10:02:49.215Z,11.59
2022-10-01T10:05:21.405Z,11.63
2022-10-01T10:07:55.664Z,11.64
2022-10-01T10:10:28.985Z,11.68
2022-10-01T10:13:09.626Z,11.69
2022-10-01T10:15:44.580Z,11.72
2022-10-01T10:18:21.506Z,11.72
2022-10-01T10:20:56.001Z,11.74
2022-10-01T10:23:29.344Z,11.76
2022-10-01T10:26:01.189Z,11.73
2022-10-01T10:28:44.082Z,11.77
2022-10-01T10:31:17.606Z,11.82
2022-10-01T10:33:57.996Z,11.81
2022-10-01T10:36:34.096Z,11.84
2022-10-01T10:39:06.085Z,11.84
2022-10-01T10:41:36.745Z,11.85
2022-10-01T10:44:09.416Z,11.89
2022-10-01T10:46:45.322Z,11.88
2022-10-01T10:49:26.291Z,11.89
2022-10-01T10:51:57.844Z,11.90
2022-10-01T10:54:31.526Z,11.93
2022-10-01T10:57:03.468Z,11.94
2022-10-01T10:59:35.158Z,11.93
2022-10-01T11:02:16.962Z,11.97
2022-10-01T11:04:48.023Z,12.01
2022-10-01T11:07:23.209Z,12.05
2022-10-01T11:10:16.198Z,12.11
2022-10-01T11:13:06.802Z,12.19
2022-10-01T11:16:02.071Z,12.26
2022-10-01T11:18:56.080Z,12.31
2022-10-01T11:21:49.171Z,12.38
2022-10-01T11:24:41.255Z,12.43
2022-10-01T11:27:22.853Z,12.47
2022-10-01T11:30:06.767Z,12.50
2022-10-01T11:32:45.509Z,12.54
2022-10-01T11:35:52.765Z,12.56
2022-10-01T11:39:01.712Z,12.61
2022-10-01T11:41:38.523Z,12.64
2022-10-01T11:44:16.393Z,12.67
2022-10-01T11:46:58.933Z,12.69
2022-10-01T11:49:48.861Z,12.74
2022-10-01T11:52:37.262Z,12.81
2022-10-01T11:55:36.169Z,12.84
2022-10-01T11:58:35.214Z,12.88
2022-10-01T12:01:15.211Z,12.91
2022-10-01T12:04:06.908Z,12.94
2022-10-01T12:06:44.610Z,12.98
2022-10-01T12:09:23.414Z,12.99
2022-10-01T12:12:07.578Z,13.03
2022-10-01T12:14:47.067Z,13.09
2022-10-01T12:17:24.919Z,13.15
2022-10-01T12:19:58.487Z,13.23
2022-10-01T12:22:33.936Z,13.26
2022-10-01T12:25:02.960Z,13.29
2022-10-01T12:28:02.269Z,13.35
2022-10-01T12:30:43.851Z,13.42
2022-10-01T12:33:53.818Z,13.49
2022-10-01T12:36:37.402Z,13.57
2022-10-01T12:39:27.113Z,13.64
2022-10-01T12:42:14.545Z,13.72
2022-10-01T12:45:01.696Z,13.79
2022-10-01T12:47:44.259Z,13.83
2022-10-01T12:50:28.631Z,13.89
2022-10-01T12:53:20.736Z,13.96
2022-10-01T12:56:09.226Z,13.99
2022-10-01T12:59:13.663Z,14.03
2022-10-01T13:02:01.184Z,14.11
2022-10-01T13:05:08.121Z,14.15
2022-10-01T13:07:56.691Z,14.18
2022-10-01T13:10:46.301Z,14.24
2022-10-01T13:13:24.144Z,14.29
2022-10-01T13:16:04.121Z,14.32
2022-10-01T13:18:54.476Z,14.36
2022-10-01T13:21:38.331Z,14.42
2022-10-01T13:24:19.862Z,14.46
2022-10-01T13:26:58.823Z,14.50
2022-10-01T13:29:48.618Z,14.51
2022-10-01T13:32:31.949Z,14.57
2022-10-01T13:35:03.827Z,14.65
2022-10-01T13:37:41.466Z,14.76
2022-10-01T13:40:28.086Z,14.81
2022-10-01T13:43:00.779Z,14.87
2022-10-01T13:45:41.969Z,14.91
2022-10-01T13:48:20.987Z,14.93
2022-10-01T13:51:03.550Z,15.00
2022-10-01T13:53:37.520Z,15.03
2022-10-01T13:56:08.125Z,15.06
2022-10-01T13:58:41.041Z,15.06
2022-10-01T14:01:38.056Z,15.13
2022-10-01T14:04:20.945Z,15.17
2022-10-01T14:06:57.180Z,15.17
2022-10-01T14:09:31.727Z,15.20
2022-10-01T14:12:22.810Z,15.23
2022-10-01T14:15:14.740Z,15.31
2022-10-01T14:17:48.601Z,15.34
2022-10-01T14:20:23.221Z,15.32
2022-10-01T14:23:11.486Z,15.37
2022-10-01T14:25:53.852Z,15.38
2022-10-01T14:28:49.019Z,15.36
2022-10-01T14:31:34.261Z,15.38
2022-10-01T14:34:30.644Z,15.34
2022-10-01T14:37:00.214Z,15.33
2022-10-01T14:39:30.686Z,15.31
2022-10-01T14:42:00.126Z,15.28
2022-10-01T14:44:31.713Z,15.24
2022-10-01T14:47:02.853Z,15.24
2022-10-01T14:49:34.160Z,15.24
2022-10-01T14:52:07.902Z,15.19
2022-10-01T14:54:48.707Z,15.19
2022-10-01T14:57:27.659Z,15.15
2022-10-01T14:59:58.544Z,15.13
2022-10-01T15:02:29.110Z,15.09
2022-10-01T15:05:00.068Z,15.05
2022-10-01T15:07:36.890Z,15.03
2022-10-01T15:10:10.926Z,14.95
2022-10-01T15:12:42.657Z,14.92
2022-10-01T15:15:25.337Z,14.91
2022-10-01T15:17:54.355Z,14.90
2022-10-01T15:20:24.643Z,14.92
2022-10-01T15:23:01.050Z,14.90
2022-10-01T15:25:32.653Z,14.91
2022-10-01T15:28:01.506Z,14.90
2022-10-01T15:30:30.691Z,14.92
2022-10-01T15:32:59.506Z,14.93
2022-10-01T15:35:30.607Z,14.95
2022-10-01T15:38:00.908Z,14.94
2022-10-01T15:40:35.575Z,14.93
2022-10-01T15:43:26.413Z,14.92
2022-10-01T15:46:33.038Z,14.91
2022-10-01T15:49:20.482Z,14.89
2022-10-01T15:52:17.535Z,14.88
2022-10-01T15:54:48.561Z,14.87
2022-10-01T15:57:22.730Z,14.86
2022-10-01T15:59:55.213Z,14.84
2022-10-01T16:02:29.169Z,14.82
2022-10-01T16:05:07.469Z,14.81
2022-10-01T16:07:39.465Z,14.80
2022-10-01T16:10:31.393Z,14.80
2022-10-01T16:13:00.039Z,14.77
2022-10-01T16:15:31.651Z,14.76
2022-10-01T16:18:02.510Z,14.77
2022-10-01T16:20:46.659Z,14.71
2022-10-01T16:23:42.801Z,14.70
2022-10-01T16:26:40.347Z,14.67
2022-10-01T16:29:25.813Z,14.65
2022-10-01T16:31:56.801Z,14.61
2022-10-01T16:34:28.452Z,14.63
2022-10-01T16:36:57.968Z,14.60
2022-10-01T16:39:28.017Z,14.57
2022-10-01T16:42:19.089Z,14.55
2022-10-01T16:44:45.435Z,14.52
2022-10-01T16:47:14.348Z,14.51
2022-10-01T16:49:43.402Z,14.48
2022-10-01T16:52:16.716Z,14.46
2022-10-01T16:54:47.530Z,14.41
2022-10-01T16:57:16.656Z,14.39
2022-10-01T16:59:45.467Z,14.36
2022-10-01T17:02:16.543Z,14.33
2022-10-01T17:04:45.217Z,14.30
2022-10-01T17:07:13.701Z,14.29
2022-10-01T17:09:42.244Z,14.25
2022-10-01T17:12:12.617Z,14.22
2022-10-01T17:14:42.970Z,14.16
2022-10-01T17:17:11.530Z,14.13
2022-10-01T17:19:40.052Z,14.09
2022-10-01T17:22:09.440Z,14.07
2022-10-01T17:24:37.991Z,14.03
2022-10-01T17:27:06.503Z,14.03
2022-10-01T17:29:37.302Z,13.97
2022-10-01T17:32:06.375Z,13.95
2022-10-01T17:34:35.829Z,13.92
2022-10-01T17:37:04.383Z,13.91
2022-10-01T17:39:33.083Z,13.92
2022-10-01T17:42:01.518Z,13.93
2022-10-01T17:44:30.594Z,13.91
2022-10-01T17:47:00.498Z,13.88
2022-10-01T17:49:29.150Z,13.86
2022-10-01T17:51:57.896Z,13.84
2022-10-01T17:54:26.514Z,13.86
2022-10-01T17:56:58.860Z,13.87
2022-10-01T17:59:29.386Z,13.84
2022-10-01T18:01:59.832Z,13.84
2022-10-01T18:04:28.481Z,13.82
2022-10-01T18:06:59.856Z,13.81
2022-10-01T18:09:29.067Z,13.82
2022-10-01T18:11:57.615Z,13.81
2022-10-01T18:14:26.497Z,13.79
2022-10-01T18:16:55.309Z,13.79
2022-10-01T18:19:54.467Z,13.77
2022-10-01T18:22:15.428Z,13.78
2022-10-01T18:24:45.789Z,13.78
2022-10-01T18:27:15.061Z,13.75
2022-10-01T18:29:43.630Z,13.74
2022-10-01T18:32:20.208Z,13.75
2022-10-01T18:34:57.990Z,13.69
2022-10-01T18:37:40.135Z,13.66
2022-10-01T18:40:13.731Z,13.65
2022-10-01T18:42:53.561Z,13.60
2022-10-01T18:45:45.082Z,13.57
2022-10-01T18:48:47.594Z,13.56
2022-10-01T18:51:29.261Z,13.53
2022-10-01T18:54:34.570Z,13.51
2022-10-01T18:57:19.827Z,13.50
2022-10-01T19:00:07.426Z,13.48
2022-10-01T19:03:15.613Z,13.44
2022-10-01T19:06:34.513Z,13.44
2022-10-01T19:09:26.765Z,13.42
2022-10-01T19:12:16.361Z,13.38
2022-10-01T19:15:10.896Z,13.36
2022-10-01T19:18:07.526Z,13.35
2022-10-01T19:20:50.884Z,13.33
2022-10-01T19:23:50.198Z,13.32
2022-10-01T19:26:29.724Z,13.28
2022-10-01T19:29:23.631Z,13.27
2022-10-01T19:31:58.586Z,13.27
2022-10-01T19:34:35.391Z,13.24
2022-10-01T19:37:11.441Z,13.19
2022-10-01T19:39:46.943Z,13.18
2022-10-01T19:42:24.829Z,13.16
2022-10-01T19:45:04.657Z,13.15
2022-10-01T19:47:43.173Z,13.11
2022-10-01T19:50:24.165Z,13.10
2022-10-01T19:52:57.349Z,13.08
2022-10-01T19:55:36.385Z,13.05
2022-10-01T19:58:18.845Z,13.02
2022-10-01T20:00:52.503Z,13.02
2022-10-01T20:03:32.823Z,13.00
2022-10-01T20:06:08.769Z,12.97
2022-10-01T20:08:46.732Z,12.96
2022-10-01T20:11:24.803Z,12.95
2022-10-01T20:14:38.665Z,12.93
2022-10-01T20:17:21.405Z,12.89
2022-10-01T20:20:02.049Z,12.89
2022-10-01T20:22:41.288Z,12.89
2022-10-01T20:25:21.885Z,12.88
2022-10-01T20:28:05.154Z,12.83
2022-10-01T20:30:47.333Z,12.82
2022-10-01T20:33:29.861Z,12.79
2022-10-01T20:36:06.845Z,12.76
2022-10-01T20:38:44.798Z,12.78
2022-10-01T20:41:18.206Z,12.74
2022-10-01T20:43:52.574Z,12.72
2022-10-01T20:46:32.587Z,12.70
2022-10-01T20:49:06.594Z,12.67
2022-10-01T20:51:46.115Z,12.63
2022-10-01T20:54:23.416Z,12.60
2022-10-01T20:57:05.271Z,12.60
2022-10-01T20:59:43.880Z,12.59
2022-10-01T21:02:33.687Z,12.55
2022-10-01T21:05:09.428Z,12.56
2022-10-01T21:07:49.423Z,12.54
2022-10-01T21:10:29.444Z,12.49
2022-10-01T21:13:22.567Z,12.47
2022-10-01T21:16:10.316Z,12.47
2022-10-01T21:18:52.266Z,12.40
2022-10-01T21:21:36.671Z,12.40
2022-10-01T21:24:39.466Z,12.39
2022-10-01T21:27:31.589Z,12.41
2022-10-01T21:30:16.140Z,12.41
2022-10-01T21:33:16.419Z,12.43
2022-10-01T21:35:53.775Z,12.42
2022-10-01T21:38:40.397Z,12.41
2022-10-01T21:41:56.250Z,12.42
2022-10-01T21:45:01.430Z,12.42
2022-10-01T21:47:48.184Z,12.43
2022-10-01T21:50:34.077Z,12.44
2022-10-01T21:53:38.837Z,12.41
2022-10-01T21:56:32.786Z,12.45
2022-10-01T21:59:13.876Z,12.46
2022-10-01T22:02:07.246Z,12.45
2022-10-01T22:04:49.528Z,12.47
2022-10-01T22:07:29.784Z,12.49
2022-10-01T22:10:10.956Z,12.50
2022-10-01T22:12:43.867Z,12.50
2022-10-01T22:15:25.051Z,12.52
2022-10-01T22:17:57.810Z,12.54
2022-10-01T22:20:37.647Z,12.55
2022-10-01T22:23:14.436Z,12.57
2022-10-01T22:25:51.583Z,12.58
2022-10-01T22:28:27.618Z,12.60
2022-10-01T22:31:03.291Z,12.60
2022-10-01T22:33:39.506Z,12.63
2022-10-01T22:36:15.614Z,12.65
2022-10-01T22:38:54.158Z,12.66
2022-10-01T22:41:32.553Z,12.68
2022-10-01T22:44:10.792Z,12.68
2022-10-01T22:47:10.134Z,12.69
2022-10-01T22:50:02.846Z,12.70
2022-10-01T22:52:43.108Z,12.72
2022-10-01T22:55:29.853Z,12.73
2022-10-01T22:58:24.003Z,12.73
2022-10-01T23:01:09.205Z,12.73
2022-10-01T23:04:10.961Z,12.75
2022-10-01T23:06:52.422Z,12.74
2022-10-01T23:09:31.156Z,12.76
2022-10-01T23:12:18.104Z,12.75
2022-10-01T23:15:08.475Z,12.75
2022-10-01T23:17:46.271Z,12.75
2022-10-01T23:20:29.254Z,12.75
2022-10-01T23:23:28.465Z,12.76
2022-10-01T23:26:30.748Z,12.77
2022-10-01T23:29:29.309Z,12.76
2022-10-01T23:32:10.227Z,12.78
2022-10-01T23:34:54.289Z,12.79
2022-10-01T23:37:59.300Z,12.80
2022-10-01T23:40:34.718Z,12.80
2022-10-01T23:43:12.319Z,12.80
2022-10-01T23:45:50.510Z,12.79
2022-10-01T23:48:24.476Z,12.81
2022-10-01T23:51:02.591Z,12.82
2022-10-01T23:53:41.807Z,12.82
2022-10-01T23:56:35.845Z,12.84
2022-10-01T23:59:20.569Z,12.84
